createdAt,value
2023-01-18T00:00:16.688Z,8.96
2023-01-18T00:02:46.873Z,8.94
2023-01-18T00:05:14.555Z,8.84
2023-01-18T00:07:41.982Z,8.89
2023-01-18T00:10:10.213Z,8.89
2023-01-18T00:12:37.570Z,9.08
2023-01-18T00:15:05.654Z,9.02
2023-01-18T00:17:33.459Z,9.05
2023-01-18T00:20:00.835Z,9.06
2023-01-18T00:22:28.170Z,8.98
2023-01-18T00:24:55.763Z,8.87
2023-01-18T00:27:23.170Z,9.06
2023-01-18T00:29:50.571Z,8.99
2023-01-18T00:32:18.213Z,8.93
2023-01-18T00:34:47.816Z,8.93
2023-01-18T00:37:16.648Z,9.08
2023-01-18T00:39:44.259Z,8.94
2023-01-18T00:42:30.394Z,8.82
2023-01-18T00:44:58.063Z,8.72
2023-01-18T00:47:25.427Z,8.77
2023-01-18T00:49:52.800Z,8.71
2023-01-18T00:52:20.484Z,8.93
2023-01-18T00:54:47.961Z,8.94
2023-01-18T00:57:15.359Z,8.91
2023-01-18T00:59:43.024Z,9.04
2023-01-18T01:02:10.496Z,9.14
2023-01-18T01:04:57.073Z,9.00
2023-01-18T01:07:24.739Z,9.08
2023-01-18T01:09:52.143Z,9.06
2023-01-18T01:12:38.010Z,9.10
2023-01-18T01:15:25.038Z,9.16
2023-01-18T01:18:10.969Z,9.23
2023-01-18T01:20:57.587Z,9.32
2023-01-18T01:23:43.926Z,9.42
2023-01-18T01:26:12.548Z,9.39
2023-01-18T01:28:45.687Z,9.61
2023-01-18T01:31:16.118Z,9.56
2023-01-18T01:33:44.937Z,9.48
2023-01-18T01:36:15.264Z,9.31
2023-01-18T01:38:42.675Z,9.54
2023-01-18T01:41:25.277Z,9.50
2023-01-18T01:43:55.588Z,9.51
2023-01-18T01:46:49.080Z,9.53
2023-01-18T01:49:23.908Z,9.40
2023-01-18T01:52:15.313Z,9.45
2023-01-18T01:54:53.920Z,9.52
2023-01-18T01:57:27.283Z,9.45
2023-01-18T02:00:08.598Z,9.35
2023-01-18T02:02:39.857Z,9.53
2023-01-18T02:05:09.117Z,9.39
2023-01-18T02:07:36.738Z,9.43
2023-01-18T02:10:05.884Z,9.43
2023-01-18T02:12:35.277Z,9.27
2023-01-18T02:15:03.111Z,9.51
2023-01-18T02:18:05.917Z,9.52
2023-01-18T02:20:50.951Z,9.44
2023-01-18T02:23:56.053Z,9.38
2023-01-18T02:26:51.692Z,9.26
2023-01-18T02:29:29.447Z,9.24
2023-01-18T02:32:20.971Z,9.22
2023-01-18T02:34:50.344Z,9.12
2023-01-18T02:37:31.145Z,8.91
2023-01-18T02:40:10.367Z,9.11
2023-01-18T02:42:58.348Z,9.05
2023-01-18T02:45:50.288Z,9.11
2023-01-18T02:48:19.981Z,9.14
2023-01-18T02:50:47.410Z,9.03
2023-01-18T02:53:15.055Z,9.07
2023-01-18T02:56:21.753Z,8.93
2023-01-18T02:58:53.982Z,9.03
2023-01-18T03:01:26.603Z,9.12
2023-01-18T03:03:57.244Z,9.14
2023-01-18T03:06:28.457Z,9.11
2023-01-18T03:08:56.931Z,9.07
2023-01-18T03:11:33.623Z,8.99
2023-01-18T03:14:12.018Z,8.97
2023-01-18T03:16:58.342Z,8.98
2023-01-18T03:19:55.123Z,9.09
2023-01-18T03:22:44.540Z,9.02
2023-01-18T03:25:14.056Z,9.17
2023-01-18T03:28:01.927Z,8.83
2023-01-18T03:30:49.152Z,8.82
2023-01-18T03:33:37.455Z,8.80
2023-01-18T03:36:06.679Z,9.01
2023-01-18T03:38:34.975Z,9.11
2023-01-18T03:41:02.973Z,8.93
2023-01-18T03:43:36.480Z,8.75
2023-01-18T03:46:05.075Z,9.03
2023-01-18T03:48:32.592Z,9.27
2023-01-18T03:51:26.334Z,9.26
2023-01-18T03:54:09.675Z,9.21
2023-01-18T03:57:03.373Z,9.08
2023-01-18T03:59:34.968Z,9.04
2023-01-18T04:02:03.845Z,9.18
2023-01-18T04:04:31.516Z,9.28
2023-01-18T04:06:59.123Z,9.33
2023-01-18T04:09:27.029Z,9.33
2023-01-18T04:11:54.692Z,9.29
2023-01-18T04:14:22.057Z,9.29
2023-01-18T04:16:49.478Z,9.18
2023-01-18T04:19:17.707Z,9.20
2023-01-18T04:21:45.167Z,9.24
2023-01-18T04:24:12.600Z,9.25
2023-01-18T04:26:40.213Z,9.23
2023-01-18T04:29:09.049Z,9.05
2023-01-18T04:31:36.503Z,8.93
2023-01-18T04:34:04.219Z,9.10
2023-01-18T04:36:31.606Z,9.31
2023-01-18T04:38:59.325Z,9.50
2023-01-18T04:41:27.052Z,9.43
2023-01-18T04:43:54.483Z,9.30
2023-01-18T04:46:21.883Z,9.26
2023-01-18T04:48:51.652Z,9.25
2023-01-18T04:51:19.288Z,9.14
2023-01-18T04:53:47.764Z,9.21
2023-01-18T04:56:15.683Z,9.16
2023-01-18T04:58:43.444Z,9.12
2023-01-18T05:01:14.384Z,9.17
2023-01-18T05:03:42.196Z,9.13
2023-01-18T05:06:11.227Z,9.28
2023-01-18T05:08:42.093Z,9.25
2023-01-18T05:11:11.948Z,9.38
2023-01-18T05:13:40.194Z,9.39
2023-01-18T05:16:10.381Z,9.34
2023-01-18T05:18:38.133Z,9.24
2023-01-18T05:21:05.742Z,9.20
2023-01-18T05:23:33.410Z,9.27
2023-01-18T05:26:01.053Z,9.35
2023-01-18T05:28:28.511Z,9.07
2023-01-18T05:30:55.915Z,8.91
2023-01-18T05:33:23.550Z,8.77
2023-01-18T05:35:52.384Z,8.70
2023-01-18T05:38:20.537Z,8.68
2023-01-18T05:40:52.230Z,8.45
2023-01-18T05:43:21.434Z,8.16
2023-01-18T05:45:49.267Z,8.07
2023-01-18T05:48:16.935Z,8.08
2023-01-18T05:50:46.027Z,7.61
2023-01-18T05:53:15.336Z,7.49
2023-01-18T05:55:42.939Z,7.33
2023-01-18T05:58:10.742Z,7.26
2023-01-18T06:00:38.404Z,7.45
2023-01-18T06:03:06.067Z,7.09
2023-01-18T06:05:33.408Z,7.20
2023-01-18T06:08:00.796Z,7.32
2023-01-18T06:10:28.548Z,7.53
2023-01-18T06:12:56.314Z,7.56
2023-01-18T06:15:23.868Z,7.63
2023-01-18T06:17:51.532Z,7.79
2023-01-18T06:20:18.902Z,7.87
2023-01-18T06:22:46.665Z,7.80
2023-01-18T06:25:14.384Z,7.92
2023-01-18T06:27:41.770Z,7.95
2023-01-18T06:30:11.066Z,8.03
2023-01-18T06:32:38.703Z,8.05
2023-01-18T06:35:06.473Z,8.15
2023-01-18T06:37:33.924Z,8.00
2023-01-18T06:40:02.867Z,7.98
2023-01-18T06:42:30.400Z,7.89
2023-01-18T06:44:57.729Z,7.51
2023-01-18T06:47:25.397Z,7.75
2023-01-18T06:49:52.776Z,7.75
2023-01-18T06:52:20.113Z,7.56
2023-01-18T06:54:47.837Z,7.68
2023-01-18T06:57:15.575Z,7.86
2023-01-18T06:59:42.918Z,7.73
2023-01-18T07:02:14.173Z,7.68
2023-01-18T07:04:44.158Z,7.69
2023-01-18T07:07:12.825Z,7.57
2023-01-18T07:09:40.158Z,7.38
2023-01-18T07:12:07.681Z,7.22
2023-01-18T07:14:35.293Z,7.11
2023-01-18T07:17:02.672Z,7.11
2023-01-18T07:19:30.120Z,7.26
2023-01-18T07:21:58.889Z,7.35
2023-01-18T07:24:26.503Z,7.15
2023-01-18T07:26:54.956Z,7.03
2023-01-18T07:29:22.696Z,7.28
2023-01-18T07:31:50.162Z,7.33
2023-01-18T07:34:17.792Z,7.39
2023-01-18T07:36:45.597Z,7.32
2023-01-18T07:39:13.155Z,7.42
2023-01-18T07:41:42.010Z,7.28
2023-01-18T07:44:10.676Z,7.17
2023-01-18T07:46:38.529Z,7.19
2023-01-18T07:49:06.025Z,7.25
2023-01-18T07:51:34.919Z,7.49
2023-01-18T07:54:02.317Z,7.58
2023-01-18T07:56:29.657Z,7.69
2023-01-18T07:58:57.359Z,7.80
2023-01-18T08:01:24.859Z,7.78
2023-01-18T08:03:54.643Z,7.90
2023-01-18T08:06:27.381Z,8.02
2023-01-18T08:08:55.862Z,8.00
2023-01-18T08:11:23.492Z,8.08
2023-01-18T08:13:52.624Z,8.05
2023-01-18T08:16:20.388Z,8.15
2023-01-18T08:18:50.785Z,8.30
2023-01-18T08:21:18.224Z,8.07
2023-01-18T08:23:46.291Z,8.31
2023-01-18T08:26:15.123Z,8.09
2023-01-18T08:28:44.648Z,7.97
2023-01-18T08:31:15.608Z,7.68
2023-01-18T08:33:45.955Z,7.82
2023-01-18T08:36:17.928Z,7.88
2023-01-18T08:38:53.143Z,8.13
2023-01-18T08:41:21.678Z,8.07
2023-01-18T08:43:50.704Z,8.41
2023-01-18T08:46:18.668Z,8.53
2023-01-18T08:48:52.279Z,8.67
2023-01-18T08:51:20.471Z,8.80
2023-01-18T08:53:48.333Z,8.92
2023-01-18T08:56:15.787Z,8.64
2023-01-18T08:58:43.127Z,8.92
2023-01-18T09:01:10.867Z,8.70
2023-01-18T09:03:38.449Z,8.77
2023-01-18T09:06:12.696Z,8.87
2023-01-18T09:08:40.696Z,8.62
2023-01-18T09:11:10.264Z,8.70
2023-01-18T09:13:54.594Z,8.71
2023-01-18T09:16:27.044Z,8.83
2023-01-18T09:18:56.122Z,9.04
2023-01-18T09:21:23.971Z,9.07
2023-01-18T09:23:51.741Z,8.96
2023-01-18T09:26:21.105Z,8.65
2023-01-18T09:28:52.192Z,8.72
2023-01-18T09:31:21.703Z,8.75
2023-01-18T09:33:53.579Z,8.82
2023-01-18T09:36:26.522Z,8.87
2023-01-18T09:38:55.429Z,8.91
2023-01-18T09:41:31.729Z,8.86
2023-01-18T09:44:18.039Z,8.95
2023-01-18T09:46:58.030Z,8.75
2023-01-18T09:49:52.130Z,8.63
2023-01-18T09:52:29.024Z,8.94
2023-01-18T09:55:03.719Z,9.07
2023-01-18T09:58:10.072Z,8.93
2023-01-18T10:00:40.971Z,8.69
2023-01-18T10:03:34.705Z,8.82
2023-01-18T10:06:09.795Z,8.99
2023-01-18T10:08:46.619Z,9.17
2023-01-18T10:11:23.472Z,9.10
2023-01-18T10:14:00.151Z,9.45
2023-01-18T10:16:27.742Z,9.29
2023-01-18T10:18:58.923Z,9.35
2023-01-18T10:21:51.969Z,9.04
2023-01-18T10:24:26.355Z,9.21
2023-01-18T10:26:59.148Z,9.10
2023-01-18T10:29:38.980Z,9.07
2023-01-18T10:32:12.806Z,9.27
2023-01-18T10:34:44.184Z,9.19
2023-01-18T10:37:40.387Z,9.04
2023-01-18T10:40:10.301Z,8.97
2023-01-18T10:42:45.201Z,9.11
2023-01-18T10:45:21.138Z,9.12
2023-01-18T10:47:49.662Z,9.23
2023-01-18T10:50:24.616Z,9.17
2023-01-18T10:52:51.945Z,8.85
2023-01-18T10:55:20.149Z,9.27
2023-01-18T10:57:53.403Z,8.85
2023-01-18T11:00:33.636Z,9.02
2023-01-18T11:03:02.811Z,9.40
2023-01-18T11:05:38.015Z,9.31
2023-01-18T11:08:22.129Z,9.42
2023-01-18T11:11:14.586Z,9.88
2023-01-18T11:13:47.121Z,10.02
2023-01-18T11:16:20.732Z,10.27
2023-01-18T11:18:55.628Z,10.14
2023-01-18T11:21:24.449Z,10.33
2023-01-18T11:23:52.929Z,10.16
2023-01-18T11:26:21.805Z,10.36
2023-01-18T11:29:02.323Z,10.25
2023-01-18T11:31:32.501Z,10.30
2023-01-18T11:34:03.917Z,9.99
2023-01-18T11:36:46.371Z,10.11
2023-01-18T11:39:17.955Z,10.13
2023-01-18T11:41:45.463Z,10.13
2023-01-18T11:44:18.545Z,10.06
2023-01-18T11:46:50.392Z,10.06
2023-01-18T11:49:29.760Z,10.18
2023-01-18T11:52:17.687Z,9.73
2023-01-18T11:54:48.478Z,10.07
2023-01-18T11:57:16.130Z,10.12
2023-01-18T11:59:46.022Z,10.24
2023-01-18T12:02:36.693Z,10.28
2023-01-18T12:05:45.830Z,10.34
2023-01-18T12:08:26.938Z,10.30
2023-01-18T12:11:17.710Z,10.38
2023-01-18T12:14:22.005Z,10.42
2023-01-18T12:16:55.043Z,10.48
2023-01-18T12:19:41.824Z,10.49
2023-01-18T12:22:24.692Z,10.64
2023-01-18T12:25:19.582Z,10.68
2023-01-18T12:28:02.208Z,10.38
2023-01-18T12:31:16.200Z,10.60
2023-01-18T12:33:46.801Z,10.55
2023-01-18T12:36:32.935Z,10.60
2023-01-18T12:39:07.780Z,10.44
2023-01-18T12:42:05.275Z,10.64
2023-01-18T12:44:49.253Z,10.73
2023-01-18T12:47:34.953Z,10.62
2023-01-18T12:50:08.006Z,10.58
2023-01-18T12:52:42.891Z,10.75
2023-01-18T12:55:16.503Z,10.71
2023-01-18T12:57:46.448Z,10.58
2023-01-18T13:00:31.633Z,10.96
2023-01-18T13:02:59.151Z,11.03
2023-01-18T13:05:35.967Z,10.91
2023-01-18T13:08:09.186Z,11.10
2023-01-18T13:10:37.208Z,11.02
2023-01-18T13:13:05.920Z,11.19
2023-01-18T13:15:47.496Z,11.13
2023-01-18T13:18:21.647Z,10.98
2023-01-18T13:21:07.238Z,11.09
2023-01-18T13:23:55.098Z,11.29
2023-01-18T13:26:26.322Z,11.38
2023-01-18T13:29:17.008Z,11.17
2023-01-18T13:31:45.821Z,11.26
2023-01-18T13:34:47.729Z,11.13
2023-01-18T13:37:39.734Z,11.12
2023-01-18T13:40:20.927Z,11.23
2023-01-18T13:42:48.422Z,11.30
2023-01-18T13:45:24.758Z,11.34
2023-01-18T13:47:57.308Z,11.21
2023-01-18T13:50:38.062Z,11.20
2023-01-18T13:53:14.394Z,11.42
2023-01-18T13:55:52.364Z,11.21
2023-01-18T13:58:28.125Z,11.32
2023-01-18T14:00:58.601Z,11.22
2023-01-18T14:03:29.281Z,11.26
2023-01-18T14:05:57.429Z,11.09
2023-01-18T14:08:29.030Z,11.02
2023-01-18T14:11:03.877Z,11.06
2023-01-18T14:13:46.443Z,11.03
2023-01-18T14:16:18.903Z,11.12
2023-01-18T14:18:52.023Z,11.01
2023-01-18T14:21:28.911Z,10.91
2023-01-18T14:23:56.408Z,10.87
2023-01-18T14:26:28.806Z,10.92
2023-01-18T14:28:59.544Z,10.95
2023-01-18T14:31:30.546Z,10.98
2023-01-18T14:33:57.970Z,10.85
2023-01-18T14:36:27.437Z,10.99
2023-01-18T14:39:21.597Z,11.02
2023-01-18T14:41:55.538Z,10.96
2023-01-18T14:44:25.847Z,11.03
2023-01-18T14:46:56.082Z,10.93
2023-01-18T14:49:35.310Z,10.87
2023-01-18T14:52:03.783Z,10.76
2023-01-18T14:54:31.708Z,10.73
2023-01-18T14:57:03.672Z,10.81
2023-01-18T14:59:32.175Z,10.96
2023-01-18T15:02:15.978Z,10.99
2023-01-18T15:04:45.703Z,10.96
2023-01-18T15:07:17.372Z,10.96
2023-01-18T15:09:45.682Z,10.99
2023-01-18T15:12:16.411Z,11.08
2023-01-18T15:14:46.132Z,11.10
2023-01-18T15:17:23.087Z,11.02
2023-01-18T15:19:53.814Z,10.85
2023-01-18T15:22:25.568Z,10.77
2023-01-18T15:24:52.931Z,10.98
2023-01-18T15:27:20.633Z,10.94
2023-01-18T15:29:50.456Z,10.86
2023-01-18T15:32:21.088Z,10.62
2023-01-18T15:34:50.721Z,10.56
2023-01-18T15:37:33.672Z,10.36
2023-01-18T15:40:02.827Z,10.48
2023-01-18T15:42:37.012Z,10.44
2023-01-18T15:45:06.154Z,10.47
2023-01-18T15:47:36.751Z,10.42
2023-01-18T15:50:06.908Z,10.33
2023-01-18T15:52:49.525Z,10.29
2023-01-18T15:55:24.442Z,10.31
2023-01-18T15:57:59.646Z,10.32
2023-01-18T16:00:41.044Z,10.23
2023-01-18T16:03:46.363Z,10.30
2023-01-18T16:06:16.951Z,10.01
2023-01-18T16:08:56.791Z,9.97
2023-01-18T16:11:30.480Z,9.99
2023-01-18T16:14:00.215Z,10.14
2023-01-18T16:16:28.206Z,10.19
2023-01-18T16:19:25.360Z,10.28
2023-01-18T16:22:06.524Z,10.27
2023-01-18T16:24:41.084Z,10.14
2023-01-18T16:27:11.656Z,10.25
2023-01-18T16:29:44.872Z,10.36
2023-01-18T16:32:21.751Z,10.27
2023-01-18T16:34:50.099Z,10.23
2023-01-18T16:37:18.566Z,10.19
2023-01-18T16:39:45.992Z,10.24
2023-01-18T16:42:13.440Z,10.35
2023-01-18T16:44:43.459Z,10.27
2023-01-18T16:47:15.639Z,10.11
2023-01-18T16:49:44.081Z,10.08
2023-01-18T16:52:13.270Z,10.11
2023-01-18T16:54:42.527Z,10.11
2023-01-18T16:57:19.323Z,10.18
2023-01-18T16:59:47.145Z,10.17
2023-01-18T17:02:14.875Z,10.18
2023-01-18T17:04:42.466Z,10.27
2023-01-18T17:07:10.196Z,10.29
2023-01-18T17:09:47.960Z,9.96
2023-01-18T17:12:16.530Z,10.01
2023-01-18T17:14:44.182Z,10.08
2023-01-18T17:17:11.682Z,10.12
2023-01-18T17:19:41.210Z,10.22
2023-01-18T17:22:08.897Z,10.13
2023-01-18T17:24:36.718Z,10.36
2023-01-18T17:27:04.158Z,10.42
2023-01-18T17:29:31.800Z,10.20
2023-01-18T17:31:59.436Z,10.04
2023-01-18T17:34:28.449Z,9.75
2023-01-18T17:36:58.688Z,9.95
2023-01-18T17:39:37.440Z,10.34
2023-01-18T17:42:22.301Z,10.37
2023-01-18T17:45:02.472Z,10.30
2023-01-18T17:47:33.998Z,10.49
2023-01-18T17:50:08.524Z,10.36
2023-01-18T17:52:37.115Z,10.32
2023-01-18T17:55:07.042Z,10.31
2023-01-18T17:57:34.615Z,10.39
2023-01-18T18:00:02.769Z,10.51
2023-01-18T18:02:35.526Z,10.40
2023-01-18T18:05:04.451Z,10.35
2023-01-18T18:07:31.861Z,10.39
2023-01-18T18:10:01.329Z,10.30
2023-01-18T18:12:30.783Z,10.29
2023-01-18T18:14:58.477Z,10.34
2023-01-18T18:17:27.595Z,10.49
2023-01-18T18:19:55.399Z,10.32
2023-01-18T18:22:23.257Z,10.23
2023-01-18T18:24:51.116Z,10.20
2023-01-18T18:27:19.537Z,10.31
2023-01-18T18:29:46.934Z,10.29
2023-01-18T18:32:14.772Z,10.35
2023-01-18T18:34:42.653Z,10.36
2023-01-18T18:37:10.099Z,10.28
2023-01-18T18:39:37.437Z,10.21
2023-01-18T18:42:05.065Z,10.22
2023-01-18T18:44:32.442Z,10.30
2023-01-18T18:46:59.900Z,10.34
2023-01-18T18:49:27.985Z,10.32
2023-01-18T18:51:56.136Z,10.27
2023-01-18T18:54:23.594Z,10.28
2023-01-18T18:56:51.308Z,10.12
2023-01-18T18:59:18.651Z,10.20
2023-01-18T19:01:46.194Z,9.95
2023-01-18T19:04:13.913Z,10.30
2023-01-18T19:06:41.269Z,10.27
2023-01-18T19:09:08.652Z,10.27
2023-01-18T19:11:39.448Z,10.16
2023-01-18T19:14:07.066Z,10.26
2023-01-18T19:16:34.698Z,10.32
2023-01-18T19:19:03.022Z,10.05
2023-01-18T19:21:30.449Z,10.04
2023-01-18T19:23:58.144Z,10.00
2023-01-18T19:26:26.079Z,10.20
2023-01-18T19:28:53.750Z,10.26
2023-01-18T19:31:21.228Z,9.91
2023-01-18T19:33:49.452Z,9.70
2023-01-18T19:36:16.910Z,9.63
2023-01-18T19:38:48.021Z,9.75
2023-01-18T19:41:18.451Z,9.85
2023-01-18T19:43:49.172Z,9.83
2023-01-18T19:46:16.644Z,9.79
2023-01-18T19:48:44.351Z,9.80
2023-01-18T19:51:21.844Z,9.75
2023-01-18T19:53:52.832Z,9.86
2023-01-18T19:56:20.786Z,9.79
2023-01-18T19:58:49.871Z,9.69
2023-01-18T20:01:34.849Z,9.79
2023-01-18T20:04:04.897Z,9.66
2023-01-18T20:06:32.803Z,9.73
2023-01-18T20:09:00.230Z,9.77
2023-01-18T20:11:27.904Z,9.80
2023-01-18T20:13:55.906Z,9.79
2023-01-18T20:16:24.526Z,9.74
2023-01-18T20:18:52.944Z,9.84
2023-01-18T20:21:20.479Z,9.89
2023-01-18T20:23:48.313Z,9.91
2023-01-18T20:26:22.051Z,9.93
2023-01-18T20:28:53.281Z,9.96
2023-01-18T20:31:21.028Z,10.10
2023-01-18T20:33:48.593Z,10.01
2023-01-18T20:36:16.108Z,10.04
2023-01-18T20:38:43.804Z,9.84
2023-01-18T20:41:11.324Z,9.72
2023-01-18T20:43:38.801Z,9.58
2023-01-18T20:46:08.396Z,9.42
2023-01-18T20:48:36.973Z,9.71
2023-01-18T20:51:06.524Z,10.04
2023-01-18T20:53:34.547Z,10.18
2023-01-18T20:56:03.714Z,10.11
2023-01-18T20:58:31.475Z,10.08
2023-01-18T21:01:15.691Z,10.01
2023-01-18T21:03:44.105Z,9.92
2023-01-18T21:06:12.596Z,10.04
2023-01-18T21:08:40.108Z,9.92
2023-01-18T21:11:12.270Z,9.91
2023-01-18T21:13:39.774Z,9.93
2023-01-18T21:16:07.131Z,10.08
2023-01-18T21:18:34.575Z,10.20
2023-01-18T21:21:02.231Z,9.91
2023-01-18T21:23:29.782Z,9.67
2023-01-18T21:25:58.800Z,9.84
2023-01-18T21:28:26.517Z,9.78
2023-01-18T21:30:55.614Z,9.61
2023-01-18T21:33:23.906Z,9.70
2023-01-18T21:35:54.756Z,9.66
2023-01-18T21:38:25.693Z,9.30
2023-01-18T21:40:53.319Z,9.40
2023-01-18T21:43:40.612Z,9.24
2023-01-18T21:46:10.983Z,9.52
2023-01-18T21:48:38.681Z,9.37
2023-01-18T21:51:24.684Z,9.43
2023-01-18T21:54:11.113Z,9.64
2023-01-18T21:56:38.533Z,9.61
2023-01-18T21:59:06.151Z,9.46
2023-01-18T22:01:37.771Z,9.54
2023-01-18T22:04:29.434Z,9.44
2023-01-18T22:07:00.772Z,9.45
2023-01-18T22:09:29.772Z,9.53
2023-01-18T22:11:57.597Z,9.61
2023-01-18T22:14:26.025Z,9.58
2023-01-18T22:16:53.763Z,9.66
2023-01-18T22:19:21.262Z,9.55
2023-01-18T22:21:48.691Z,9.48
2023-01-18T22:24:17.470Z,9.53
2023-01-18T22:26:45.173Z,9.45
2023-01-18T22:29:12.855Z,9.61
2023-01-18T22:31:40.535Z,9.50
2023-01-18T22:34:08.328Z,9.48
2023-01-18T22:36:35.722Z,9.41
2023-01-18T22:39:03.420Z,9.43
2023-01-18T22:41:30.870Z,9.35
2023-01-18T22:43:58.265Z,9.42
2023-01-18T22:46:26.277Z,9.31
2023-01-18T22:48:53.770Z,9.26
2023-01-18T22:51:23.045Z,9.18
2023-01-18T22:53:51.264Z,9.18
2023-01-18T22:56:23.868Z,9.24
2023-01-18T22:58:52.128Z,9.16
2023-01-18T23:01:22.340Z,9.16
2023-01-18T23:03:52.840Z,9.03
2023-01-18T23:06:20.530Z,9.16
2023-01-18T23:08:48.405Z,9.04
2023-01-18T23:11:24.677Z,9.22
2023-01-18T23:14:13.625Z,9.18
2023-01-18T23:17:00.766Z,8.82
2023-01-18T23:19:30.669Z,8.98
2023-01-18T23:21:58.288Z,8.95
2023-01-18T23:24:25.745Z,8.81
2023-01-18T23:26:53.498Z,8.78
2023-01-18T23:29:21.183Z,8.78
2023-01-18T23:31:48.635Z,8.64
2023-01-18T23:34:16.464Z,8.77
2023-01-18T23:36:43.812Z,8.62
2023-01-18T23:39:30.081Z,8.72
2023-01-18T23:42:16.319Z,8.67
2023-01-18T23:45:02.189Z,8.68
2023-01-18T23:47:48.284Z,8.68
2023-01-18T23:50:34.267Z,8.69
2023-01-18T23:53:20.719Z,8.53
2023-01-18T23:55:52.808Z,8.69
2023-01-18T23:58:20.343Z,8.76
